sensor_id;sensor_type;location;lat;lon;timestamp;P1;durP1;ratioP1;P2;durP2;ratioP2
74168;SDS011;62523;53.336;83.690;2024-01-30T00:00:14;24.17;;;8.38;;
74168;SDS011;62523;53.336;83.690;2024-01-30T00:05:16;21.30;;;9.23;;
74168;SDS011;62523;53.336;83.690;2024-01-30T00:10:17;23.08;;;9.40;;
74168;SDS011;62523;53.336;83.690;2024-01-30T00:15:19;19.10;;;7.70;;
74168;SDS011;62523;53.336;83.690;2024-01-30T00:25:22;42.42;;;8.55;;
74168;SDS011;62523;53.336;83.690;2024-01-30T00:30:23;25.02;;;9.75;;
74168;SDS011;62523;53.336;83.690;2024-01-30T00:40:26;15.43;;;7.28;;
74168;SDS011;62523;53.336;83.690;2024-01-30T00:45:27;29.13;;;8.73;;
74168;SDS011;62523;53.336;83.690;2024-01-30T00:50:29;23.85;;;8.38;;
74168;SDS011;62523;53.336;83.690;2024-01-30T00:55:30;15.95;;;6.30;;
74168;SDS011;62523;53.336;83.690;2024-01-30T01:00:32;25.15;;;8.45;;
74168;SDS011;62523;53.336;83.690;2024-01-30T01:05:33;34.03;;;8.15;;
74168;SDS011;62523;53.336;83.690;2024-01-30T01:10:35;29.30;;;11.20;;
74168;SDS011;62523;53.336;83.690;2024-01-30T01:15:36;31.52;;;13.40;;
74168;SDS011;62523;53.336;83.690;2024-01-30T01:20:38;32.13;;;11.32;;
74168;SDS011;62523;53.336;83.690;2024-01-30T01:25:39;26.05;;;7.82;;
74168;SDS011;62523;53.336;83.690;2024-01-30T01:30:41;26.52;;;12.13;;
74168;SDS011;62523;53.336;83.690;2024-01-30T01:35:42;30.58;;;9.30;;
74168;SDS011;62523;53.336;83.690;2024-01-30T01:40:44;28.65;;;9.82;;
74168;SDS011;62523;53.336;83.690;2024-01-30T01:45:45;29.52;;;8.23;;
74168;SDS011;62523;53.336;83.690;2024-01-30T01:50:47;13.65;;;6.60;;
74168;SDS011;62523;53.336;83.690;2024-01-30T01:55:49;21.70;;;8.45;;
74168;SDS011;62523;53.336;83.690;2024-01-30T02:00:51;23.50;;;7.07;;
74168;SDS011;62523;53.336;83.690;2024-01-30T02:06:10;19.26;;;6.18;;
74168;SDS011;62523;53.336;83.690;2024-01-30T02:11:12;21.98;;;5.45;;
74168;SDS011;62523;53.336;83.690;2024-01-30T02:16:14;42.60;;;13.73;;
74168;SDS011;62523;53.336;83.690;2024-01-30T02:21:16;37.08;;;10.88;;
74168;SDS011;62523;53.336;83.690;2024-01-30T02:26:19;12.70;;;5.07;;
74168;SDS011;62523;53.336;83.690;2024-01-30T02:31:20;17.00;;;7.78;;
74168;SDS011;62523;53.336;83.690;2024-01-30T02:36:22;12.80;;;7.43;;
74168;SDS011;62523;53.336;83.690;2024-01-30T02:41:23;22.13;;;6.72;;
74168;SDS011;62523;53.336;83.690;2024-01-30T02:46:25;19.55;;;5.40;;
74168;SDS011;62523;53.336;83.690;2024-01-30T02:51:26;22.33;;;9.10;;
74168;SDS011;62523;53.336;83.690;2024-01-30T02:56:27;19.15;;;7.15;;
74168;SDS011;62523;53.336;83.690;2024-01-30T03:01:29;32.58;;;9.35;;
74168;SDS011;62523;53.336;83.690;2024-01-30T03:06:44;14.61;;;8.71;;
74168;SDS011;62523;53.336;83.690;2024-01-30T03:11:47;19.83;;;7.20;;
74168;SDS011;62523;53.336;83.690;2024-01-30T03:16:49;31.38;;;9.70;;
74168;SDS011;62523;53.336;83.690;2024-01-30T03:21:50;26.08;;;9.98;;
74168;SDS011;62523;53.336;83.690;2024-01-30T03:26:52;28.88;;;8.05;;
74168;SDS011;62523;53.336;83.690;2024-01-30T03:31:54;27.35;;;7.10;;
74168;SDS011;62523;53.336;83.690;2024-01-30T03:36:55;22.95;;;8.65;;
74168;SDS011;62523;53.336;83.690;2024-01-30T03:41:57;31.55;;;7.50;;
74168;SDS011;62523;53.336;83.690;2024-01-30T03:46:58;30.48;;;10.60;;
74168;SDS011;62523;53.336;83.690;2024-01-30T03:52:00;23.35;;;10.52;;
74168;SDS011;62523;53.336;83.690;2024-01-30T03:57:01;23.73;;;9.60;;
74168;SDS011;62523;53.336;83.690;2024-01-30T04:02:03;19.70;;;9.20;;
74168;SDS011;62523;53.336;83.690;2024-01-30T04:12:06;35.08;;;10.50;;
74168;SDS011;62523;53.336;83.690;2024-01-30T04:17:07;20.38;;;8.90;;
74168;SDS011;62523;53.336;83.690;2024-01-30T04:22:09;24.98;;;9.50;;
74168;SDS011;62523;53.336;83.690;2024-01-30T04:27:10;46.50;;;13.57;;
74168;SDS011;62523;53.336;83.690;2024-01-30T04:32:12;25.02;;;9.50;;
74168;SDS011;62523;53.336;83.690;2024-01-30T04:37:13;42.88;;;7.97;;
74168;SDS011;62523;53.336;83.690;2024-01-30T04:42:15;31.88;;;9.05;;
74168;SDS011;62523;53.336;83.690;2024-01-30T04:47:16;22.95;;;10.10;;
74168;SDS011;62523;53.336;83.690;2024-01-30T04:52:18;29.27;;;9.52;;
74168;SDS011;62523;53.336;83.690;2024-01-30T04:57:19;23.08;;;9.18;;
74168;SDS011;62523;53.336;83.690;2024-01-30T05:02:21;26.08;;;10.25;;
74168;SDS011;62523;53.336;83.690;2024-01-30T05:07:22;58.47;;;12.80;;
74168;SDS011;62523;53.336;83.690;2024-01-30T05:12:25;23.33;;;8.45;;
74168;SDS011;62523;53.336;83.690;2024-01-30T05:17:27;22.55;;;8.05;;
74168;SDS011;62523;53.336;83.690;2024-01-30T05:22:28;23.60;;;7.30;;
74168;SDS011;62523;53.336;83.690;2024-01-30T05:27:30;21.85;;;7.68;;
74168;SDS011;62523;53.336;83.690;2024-01-30T05:37:32;18.50;;;8.80;;
74168;SDS011;62523;53.336;83.690;2024-01-30T05:42:34;25.65;;;8.25;;
74168;SDS011;62523;53.336;83.690;2024-01-30T05:47:35;30.45;;;10.63;;
74168;SDS011;62523;53.336;83.690;2024-01-30T05:52:36;24.38;;;8.18;;
74168;SDS011;62523;53.336;83.690;2024-01-30T06:02:39;28.58;;;10.55;;
74168;SDS011;62523;53.336;83.690;2024-01-30T06:07:41;17.88;;;7.18;;
74168;SDS011;62523;53.336;83.690;2024-01-30T06:12:42;27.42;;;9.02;;
74168;SDS011;62523;53.336;83.690;2024-01-30T06:17:44;23.25;;;7.32;;
74168;SDS011;62523;53.336;83.690;2024-01-30T06:22:45;24.75;;;8.25;;
74168;SDS011;62523;53.336;83.690;2024-01-30T06:27:46;27.42;;;8.82;;
74168;SDS011;62523;53.336;83.690;2024-01-30T06:32:51;25.05;;;12.80;;
74168;SDS011;62523;53.336;83.690;2024-01-30T06:37:52;29.00;;;9.00;;
74168;SDS011;62523;53.336;83.690;2024-01-30T06:47:55;26.40;;;7.07;;
74168;SDS011;62523;53.336;83.690;2024-01-30T06:52:57;20.85;;;7.00;;
74168;SDS011;62523;53.336;83.690;2024-01-30T06:57:58;30.05;;;8.15;;
74168;SDS011;62523;53.336;83.690;2024-01-30T07:02:59;26.33;;;9.05;;
74168;SDS011;62523;53.336;83.690;2024-01-30T07:08:01;28.20;;;8.83;;
74168;SDS011;62523;53.336;83.690;2024-01-30T07:13:02;20.40;;;6.97;;
74168;SDS011;62523;53.336;83.690;2024-01-30T07:18:06;20.05;;;8.07;;
74168;SDS011;62523;53.336;83.690;2024-01-30T07:23:08;27.90;;;8.35;;
74168;SDS011;62523;53.336;83.690;2024-01-30T07:28:15;40.78;;;13.98;;
74168;SDS011;62523;53.336;83.690;2024-01-30T07:33:19;16.92;;;6.80;;
74168;SDS011;62523;53.336;83.690;2024-01-30T07:38:21;27.90;;;9.68;;
74168;SDS011;62523;53.336;83.690;2024-01-30T07:43:22;21.10;;;9.85;;
74168;SDS011;62523;53.336;83.690;2024-01-30T07:48:24;21.52;;;9.23;;
74168;SDS011;62523;53.336;83.690;2024-01-30T07:53:25;13.88;;;6.03;;
74168;SDS011;62523;53.336;83.690;2024-01-30T07:58:27;26.65;;;6.40;;
74168;SDS011;62523;53.336;83.690;2024-01-30T08:03:28;15.02;;;6.18;;
74168;SDS011;62523;53.336;83.690;2024-01-30T08:08:30;21.83;;;7.10;;
74168;SDS011;62523;53.336;83.690;2024-01-30T08:13:31;29.30;;;8.38;;
74168;SDS011;62523;53.336;83.690;2024-01-30T08:18:33;37.53;;;9.40;;
74168;SDS011;62523;53.336;83.690;2024-01-30T08:23:40;21.95;;;5.35;;
74168;SDS011;62523;53.336;83.690;2024-01-30T08:28:42;22.40;;;8.25;;
74168;SDS011;62523;53.336;83.690;2024-01-30T08:33:44;29.70;;;9.35;;
74168;SDS011;62523;53.336;83.690;2024-01-30T08:38:45;28.48;;;11.95;;
74168;SDS011;62523;53.336;83.690;2024-01-30T08:43:46;43.35;;;14.00;;
74168;SDS011;62523;53.336;83.690;2024-01-30T08:48:48;20.42;;;8.68;;
74168;SDS011;62523;53.336;83.690;2024-01-30T08:53:49;22.40;;;6.78;;
74168;SDS011;62523;53.336;83.690;2024-01-30T08:58:52;22.40;;;7.53;;
74168;SDS011;62523;53.336;83.690;2024-01-30T09:03:53;36.63;;;10.85;;
74168;SDS011;62523;53.336;83.690;2024-01-30T09:08:55;18.05;;;8.88;;
74168;SDS011;62523;53.336;83.690;2024-01-30T09:13:58;20.45;;;7.20;;
74168;SDS011;62523;53.336;83.690;2024-01-30T09:24:01;28.50;;;6.90;;
74168;SDS011;62523;53.336;83.690;2024-01-30T09:29:05;19.92;;;7.22;;
74168;SDS011;62523;53.336;83.690;2024-01-30T09:34:06;23.00;;;6.32;;
74168;SDS011;62523;53.336;83.690;2024-01-30T09:39:07;11.75;;;5.35;;
74168;SDS011;62523;53.336;83.690;2024-01-30T09:44:09;24.63;;;6.97;;
74168;SDS011;62523;53.336;83.690;2024-01-30T09:49:13;21.33;;;7.75;;
74168;SDS011;62523;53.336;83.690;2024-01-30T09:54:15;25.33;;;7.20;;
74168;SDS011;62523;53.336;83.690;2024-01-30T09:59:16;20.48;;;7.03;;
74168;SDS011;62523;53.336;83.690;2024-01-30T10:04:18;21.35;;;7.85;;
74168;SDS011;62523;53.336;83.690;2024-01-30T10:09:19;16.95;;;5.15;;
74168;SDS011;62523;53.336;83.690;2024-01-30T10:14:22;19.10;;;7.07;;
74168;SDS011;62523;53.336;83.690;2024-01-30T10:19:23;17.88;;;7.40;;
74168;SDS011;62523;53.336;83.690;2024-01-30T10:24:25;33.90;;;8.98;;
74168;SDS011;62523;53.336;83.690;2024-01-30T10:29:27;30.90;;;11.98;;
74168;SDS011;62523;53.336;83.690;2024-01-30T10:34:29;41.03;;;15.52;;
74168;SDS011;62523;53.336;83.690;2024-01-30T10:44:37;28.02;;;8.98;;
74168;SDS011;62523;53.336;83.690;2024-01-30T10:49:48;25.02;;;10.93;;
74168;SDS011;62523;53.336;83.690;2024-01-30T10:54:53;40.53;;;12.82;;
74168;SDS011;62523;53.336;83.690;2024-01-30T10:59:56;49.00;;;17.13;;
74168;SDS011;62523;53.336;83.690;2024-01-30T11:04:59;42.63;;;12.38;;
74168;SDS011;62523;53.336;83.690;2024-01-30T11:10:04;92.15;;;18.08;;
74168;SDS011;62523;53.336;83.690;2024-01-30T11:15:10;47.17;;;18.73;;
74168;SDS011;62523;53.336;83.690;2024-01-30T11:20:15;56.78;;;19.73;;
74168;SDS011;62523;53.336;83.690;2024-01-30T11:25:19;48.03;;;15.40;;
74168;SDS011;62523;53.336;83.690;2024-01-30T11:35:24;59.20;;;22.50;;
74168;SDS011;62523;53.336;83.690;2024-01-30T11:40:27;75.85;;;28.92;;
74168;SDS011;62523;53.336;83.690;2024-01-30T11:45:30;86.75;;;31.45;;
74168;SDS011;62523;53.336;83.690;2024-01-30T11:50:33;80.35;;;32.70;;
74168;SDS011;62523;53.336;83.690;2024-01-30T11:55:35;97.88;;;35.40;;
74168;SDS011;62523;53.336;83.690;2024-01-30T12:00:38;87.93;;;34.85;;
74168;SDS011;62523;53.336;83.690;2024-01-30T12:05:39;103.15;;;35.72;;
74168;SDS011;62523;53.336;83.690;2024-01-30T12:10:43;102.30;;;43.05;;
74168;SDS011;62523;53.336;83.690;2024-01-30T12:15:45;99.65;;;40.30;;
74168;SDS011;62523;53.336;83.690;2024-01-30T12:20:56;106.00;;;39.70;;
74168;SDS011;62523;53.336;83.690;2024-01-30T12:26:01;99.43;;;40.50;;
74168;SDS011;62523;53.336;83.690;2024-01-30T12:31:04;77.82;;;28.55;;
74168;SDS011;62523;53.336;83.690;2024-01-30T12:41:07;51.65;;;21.02;;
74168;SDS011;62523;53.336;83.690;2024-01-30T12:46:09;63.50;;;24.15;;
74168;SDS011;62523;53.336;83.690;2024-01-30T12:56:12;74.88;;;26.02;;
74168;SDS011;62523;53.336;83.690;2024-01-30T13:01:15;85.78;;;29.48;;
74168;SDS011;62523;53.336;83.690;2024-01-30T13:06:16;82.75;;;30.45;;
74168;SDS011;62523;53.336;83.690;2024-01-30T13:11:18;116.35;;;35.50;;
74168;SDS011;62523;53.336;83.690;2024-01-30T13:16:19;97.48;;;38.30;;
74168;SDS011;62523;53.336;83.690;2024-01-30T13:21:21;134.80;;;48.55;;
74168;SDS011;62523;53.336;83.690;2024-01-30T13:26:22;137.88;;;50.47;;
74168;SDS011;62523;53.336;83.690;2024-01-30T13:31:24;153.75;;;58.17;;
74168;SDS011;62523;53.336;83.690;2024-01-30T13:41:27;102.38;;;37.53;;
74168;SDS011;62523;53.336;83.690;2024-01-30T13:46:29;96.55;;;32.88;;
74168;SDS011;62523;53.336;83.690;2024-01-30T13:51:39;120.15;;;37.55;;
74168;SDS011;62523;53.336;83.690;2024-01-30T13:56:40;115.98;;;47.24;;
74168;SDS011;62523;53.336;83.690;2024-01-30T14:01:42;109.33;;;40.30;;
74168;SDS011;62523;53.336;83.690;2024-01-30T14:06:43;91.76;;;37.44;;
74168;SDS011;62523;53.336;83.690;2024-01-30T14:11:45;92.97;;;32.70;;
74168;SDS011;62523;53.336;83.690;2024-01-30T14:16:47;68.85;;;29.15;;
74168;SDS011;62523;53.336;83.690;2024-01-30T14:21:48;69.03;;;28.00;;
74168;SDS011;62523;53.336;83.690;2024-01-30T14:26:49;66.20;;;26.65;;
74168;SDS011;62523;53.336;83.690;2024-01-30T14:31:52;79.85;;;30.08;;
74168;SDS011;62523;53.336;83.690;2024-01-30T14:36:53;107.72;;;34.75;;
74168;SDS011;62523;53.336;83.690;2024-01-30T14:41:56;105.13;;;35.15;;
74168;SDS011;62523;53.336;83.690;2024-01-30T14:46:57;107.45;;;39.10;;
74168;SDS011;62523;53.336;83.690;2024-01-30T14:51:59;111.05;;;34.15;;
74168;SDS011;62523;53.336;83.690;2024-01-30T14:57:01;67.13;;;22.73;;
74168;SDS011;62523;53.336;83.690;2024-01-30T15:02:03;84.45;;;26.65;;
74168;SDS011;62523;53.336;83.690;2024-01-30T15:07:05;57.65;;;22.42;;
74168;SDS011;62523;53.336;83.690;2024-01-30T15:12:06;54.55;;;21.90;;
74168;SDS011;62523;53.336;83.690;2024-01-30T15:17:08;56.42;;;20.23;;
74168;SDS011;62523;53.336;83.690;2024-01-30T15:22:09;56.83;;;18.08;;
74168;SDS011;62523;53.336;83.690;2024-01-30T15:27:11;87.93;;;30.10;;
74168;SDS011;62523;53.336;83.690;2024-01-30T15:32:12;66.53;;;23.35;;
74168;SDS011;62523;53.336;83.690;2024-01-30T15:37:14;78.45;;;26.80;;
74168;SDS011;62523;53.336;83.690;2024-01-30T15:42:15;69.30;;;23.25;;
74168;SDS011;62523;53.336;83.690;2024-01-30T15:47:17;62.65;;;25.77;;
74168;SDS011;62523;53.336;83.690;2024-01-30T15:52:19;68.78;;;25.30;;
74168;SDS011;62523;53.336;83.690;2024-01-30T15:57:20;58.47;;;25.13;;
74168;SDS011;62523;53.336;83.690;2024-01-30T16:02:22;64.95;;;22.65;;
74168;SDS011;62523;53.336;83.690;2024-01-30T16:07:41;78.70;;;26.25;;
74168;SDS011;62523;53.336;83.690;2024-01-30T16:12:46;68.53;;;26.85;;
74168;SDS011;62523;53.336;83.690;2024-01-30T16:18:06;91.32;;;32.55;;
74168;SDS011;62523;53.336;83.690;2024-01-30T16:23:26;102.45;;;30.95;;
74168;SDS011;62523;53.336;83.690;2024-01-30T16:28:30;70.78;;;25.52;;
74168;SDS011;62523;53.336;83.690;2024-01-30T16:33:52;71.07;;;24.85;;
74168;SDS011;62523;53.336;83.690;2024-01-30T16:39:11;57.83;;;23.35;;
74168;SDS011;62523;53.336;83.690;2024-01-30T16:44:31;46.53;;;19.92;;
74168;SDS011;62523;53.336;83.690;2024-01-30T16:49:51;59.95;;;19.63;;
74168;SDS011;62523;53.336;83.690;2024-01-30T16:55:11;51.20;;;19.25;;
74168;SDS011;62523;53.336;83.690;2024-01-30T17:00:32;41.30;;;19.53;;
74168;SDS011;62523;53.336;83.690;2024-01-30T17:05:52;57.92;;;19.80;;
74168;SDS011;62523;53.336;83.690;2024-01-30T17:11:14;57.13;;;16.73;;
74168;SDS011;62523;53.336;83.690;2024-01-30T17:16:39;49.88;;;18.83;;
74168;SDS011;62523;53.336;83.690;2024-01-30T17:21:41;32.24;;;15.30;;
74168;SDS011;62523;53.336;83.690;2024-01-30T17:26:43;25.43;;;11.94;;
74168;SDS011;62523;53.336;83.690;2024-01-30T17:31:44;41.87;;;15.87;;
74168;SDS011;62523;53.336;83.690;2024-01-30T17:36:46;34.78;;;12.52;;
74168;SDS011;62523;53.336;83.690;2024-01-30T17:41:47;44.67;;;18.80;;
74168;SDS011;62523;53.336;83.690;2024-01-30T17:46:50;40.47;;;19.77;;
74168;SDS011;62523;53.336;83.690;2024-01-30T17:51:52;36.65;;;13.45;;
74168;SDS011;62523;53.336;83.690;2024-01-30T17:56:54;42.08;;;21.15;;
74168;SDS011;62523;53.336;83.690;2024-01-30T18:01:55;37.70;;;17.65;;
74168;SDS011;62523;53.336;83.690;2024-01-30T18:06:57;46.95;;;20.10;;
74168;SDS011;62523;53.336;83.690;2024-01-30T18:11:58;54.65;;;15.15;;
74168;SDS011;62523;53.336;83.690;2024-01-30T18:17:01;46.60;;;15.00;;
74168;SDS011;62523;53.336;83.690;2024-01-30T18:22:03;37.58;;;16.17;;
74168;SDS011;62523;53.336;83.690;2024-01-30T18:27:06;29.48;;;10.90;;
74168;SDS011;62523;53.336;83.690;2024-01-30T18:37:09;40.03;;;14.10;;
74168;SDS011;62523;53.336;83.690;2024-01-30T18:42:10;22.98;;;12.40;;
74168;SDS011;62523;53.336;83.690;2024-01-30T18:47:12;30.13;;;14.90;;
74168;SDS011;62523;53.336;83.690;2024-01-30T18:52:13;32.00;;;14.32;;
74168;SDS011;62523;53.336;83.690;2024-01-30T18:57:15;29.00;;;12.87;;
74168;SDS011;62523;53.336;83.690;2024-01-30T19:02:17;41.08;;;14.60;;
74168;SDS011;62523;53.336;83.690;2024-01-30T19:07:18;35.10;;;13.23;;
74168;SDS011;62523;53.336;83.690;2024-01-30T19:17:22;33.87;;;12.70;;
74168;SDS011;62523;53.336;83.690;2024-01-30T19:22:25;33.53;;;16.90;;
74168;SDS011;62523;53.336;83.690;2024-01-30T19:27:27;27.38;;;13.48;;
74168;SDS011;62523;53.336;83.690;2024-01-30T19:32:28;24.75;;;11.07;;
74168;SDS011;62523;53.336;83.690;2024-01-30T19:37:30;42.63;;;14.43;;
74168;SDS011;62523;53.336;83.690;2024-01-30T19:42:33;32.15;;;11.82;;
74168;SDS011;62523;53.336;83.690;2024-01-30T19:47:35;35.78;;;12.50;;
74168;SDS011;62523;53.336;83.690;2024-01-30T19:52:36;40.15;;;14.15;;
74168;SDS011;62523;53.336;83.690;2024-01-30T19:57:39;33.60;;;13.80;;
74168;SDS011;62523;53.336;83.690;2024-01-30T20:02:42;31.80;;;13.35;;
74168;SDS011;62523;53.336;83.690;2024-01-30T20:07:44;34.22;;;12.52;;
74168;SDS011;62523;53.336;83.690;2024-01-30T20:12:45;30.75;;;13.32;;
74168;SDS011;62523;53.336;83.690;2024-01-30T20:17:46;29.75;;;11.25;;
74168;SDS011;62523;53.336;83.690;2024-01-30T20:22:48;36.40;;;14.88;;
74168;SDS011;62523;53.336;83.690;2024-01-30T20:32:51;36.38;;;15.52;;
74168;SDS011;62523;53.336;83.690;2024-01-30T20:37:52;39.30;;;19.08;;
74168;SDS011;62523;53.336;83.690;2024-01-30T20:47:55;46.97;;;18.30;;
74168;SDS011;62523;53.336;83.690;2024-01-30T20:52:56;57.70;;;20.08;;
74168;SDS011;62523;53.336;83.690;2024-01-30T20:57:58;45.15;;;20.15;;
74168;SDS011;62523;53.336;83.690;2024-01-30T21:02:59;62.47;;;19.65;;
74168;SDS011;62523;53.336;83.690;2024-01-30T21:08:01;38.42;;;16.77;;
74168;SDS011;62523;53.336;83.690;2024-01-30T21:13:02;57.13;;;15.93;;
74168;SDS011;62523;53.336;83.690;2024-01-30T21:23:07;60.03;;;18.58;;
74168;SDS011;62523;53.336;83.690;2024-01-30T21:28:09;35.47;;;19.35;;
74168;SDS011;62523;53.336;83.690;2024-01-30T21:33:12;40.75;;;18.27;;
74168;SDS011;62523;53.336;83.690;2024-01-30T21:38:14;43.90;;;20.40;;
74168;SDS011;62523;53.336;83.690;2024-01-30T21:43:19;36.05;;;14.93;;
74168;SDS011;62523;53.336;83.690;2024-01-30T21:48:21;46.20;;;15.50;;
74168;SDS011;62523;53.336;83.690;2024-01-30T21:53:22;31.73;;;14.65;;
74168;SDS011;62523;53.336;83.690;2024-01-30T21:58:24;36.95;;;12.95;;
74168;SDS011;62523;53.336;83.690;2024-01-30T22:03:25;38.92;;;13.52;;
74168;SDS011;62523;53.336;83.690;2024-01-30T22:08:27;37.03;;;14.00;;
74168;SDS011;62523;53.336;83.690;2024-01-30T22:13:28;37.75;;;15.70;;
74168;SDS011;62523;53.336;83.690;2024-01-30T22:23:31;35.28;;;16.50;;
74168;SDS011;62523;53.336;83.690;2024-01-30T22:28:32;33.60;;;16.17;;
74168;SDS011;62523;53.336;83.690;2024-01-30T22:33:34;52.40;;;19.02;;
74168;SDS011;62523;53.336;83.690;2024-01-30T22:38:36;67.55;;;20.83;;
74168;SDS011;62523;53.336;83.690;2024-01-30T22:43:37;33.78;;;14.57;;
74168;SDS011;62523;53.336;83.690;2024-01-30T22:53:40;34.65;;;14.48;;
74168;SDS011;62523;53.336;83.690;2024-01-30T22:58:41;58.17;;;23.13;;
74168;SDS011;62523;53.336;83.690;2024-01-30T23:03:43;61.35;;;22.55;;
74168;SDS011;62523;53.336;83.690;2024-01-30T23:08:44;57.65;;;23.70;;
74168;SDS011;62523;53.336;83.690;2024-01-30T23:13:46;52.55;;;22.85;;
74168;SDS011;62523;53.336;83.690;2024-01-30T23:18:47;73.70;;;29.25;;
74168;SDS011;62523;53.336;83.690;2024-01-30T23:23:49;69.43;;;30.25;;
74168;SDS011;62523;53.336;83.690;2024-01-30T23:28:50;108.78;;;42.90;;
74168;SDS011;62523;53.336;83.690;2024-01-30T23:33:51;100.88;;;44.60;;
74168;SDS011;62523;53.336;83.690;2024-01-30T23:38:53;103.40;;;38.90;;
74168;SDS011;62523;53.336;83.690;2024-01-30T23:43:54;97.30;;;38.53;;
74168;SDS011;62523;53.336;83.690;2024-01-30T23:48:57;114.13;;;40.35;;
74168;SDS011;62523;53.336;83.690;2024-01-30T23:54:01;107.28;;;42.78;;
74168;SDS011;62523;53.336;83.690;2024-01-30T23:59:02;113.15;;;39.25;;
